Time;durP1;ratioP1;P1;durP2;ratioP2;P2;SDS_P1;SDS_P2;PMS_P1;PMS_P2;Temp;Humidity;BMP_temperature;BMP_pressure;BME280_temperature;BME280_humidity;BME280_pressure;Samples;Min_cycle;Max_cycle;Signal;HPM_P1;HPM_P2
2023/01/05 00:01:11;;;;;;;64.43;40.72;;;11.70;1.00;;;;;;5033832;28;20022;-59
2023/01/05 00:03:37;;;;;;;59.97;42.10;;;11.70;1.00;;;;;;5032440;28;20026;-59
2023/01/05 00:06:12;;;;;;;63.72;42.78;;;11.70;1.00;;;;;;5033699;28;20086;-60
2023/01/05 00:08:38;;;;;;;63.30;41.85;;;11.80;1.00;;;;;;5034125;28;20098;-59
2023/01/05 00:22:31;;;;;;;67.20;40.47;;;11.80;1.00;;;;;;5033476;28;20083;-58
2023/01/05 00:25:10;;;;;;;70.00;41.38;;;11.60;1.00;;;;;;5033867;28;20037;-58
2023/01/05 00:27:36;;;;;;;70.28;42.50;;;11.60;1.00;;;;;;5032798;28;20038;-59
2023/01/05 00:30:03;;;;;;;70.95;40.95;;;11.50;1.00;;;;;;5033084;28;20026;-59
2023/01/05 00:32:31;;;;;;;67.68;40.60;;;11.60;1.00;;;;;;5033231;28;20034;-58
2023/01/05 00:34:58;;;;;;;72.10;42.80;;;11.70;1.00;;;;;;5021496;28;20025;-58
2023/01/05 00:37:26;;;;;;;64.85;38.75;;;11.60;1.00;;;;;;5033243;28;20424;-59
2023/01/05 00:39:52;;;;;;;69.68;42.05;;;11.70;1.00;;;;;;5022051;28;20075;-57
2023/01/05 00:42:19;;;;;;;71.82;41.60;;;11.60;1.00;;;;;;5032931;28;20041;-60
2023/01/05 00:44:44;;;;;;;72.60;42.03;;;11.70;1.00;;;;;;5033083;28;20079;-59
2023/01/05 00:47:10;;;;;;;74.22;42.67;;;11.50;1.00;;;;;;5033169;28;20426;-59
2023/01/05 00:49:36;;;;;;;65.57;39.28;;;11.50;1.00;;;;;;5032938;28;20017;-59
2023/01/05 00:52:02;;;;;;;63.78;39.70;;;11.70;1.00;;;;;;5027840;28;20038;-58
2023/01/05 00:54:27;;;;;;;68.93;41.05;;;11.60;1.00;;;;;;5022843;28;20108;-59
2023/01/05 00:56:53;;;;;;;73.13;41.58;;;11.70;1.00;;;;;;5032599;28;20038;-58
2023/01/05 00:59:19;;;;;;;78.88;44.38;;;11.40;1.00;;;;;;5029872;28;20033;-59
2023/01/05 01:02:00;;;;;;;68.85;41.08;;;11.40;1.00;;;;;;5031497;28;20022;-58
2023/01/05 01:04:25;;;;;;;73.00;40.38;;;11.30;1.00;;;;;;5017468;28;20103;-56
2023/01/05 01:06:53;;;;;;;76.10;41.30;;;11.30;1.00;;;;;;5032799;28;20103;-58
2023/01/05 01:09:18;;;;;;;73.53;42.13;;;11.30;1.00;;;;;;5020308;28;20030;-58
2023/01/05 01:11:44;;;;;;;76.93;42.65;;;11.40;1.00;;;;;;5031193;28;20478;-59
2023/01/05 01:14:12;;;;;;;73.55;42.78;;;11.30;1.00;;;;;;5025278;28;20034;-56
2023/01/05 01:16:39;;;;;;;71.22;41.53;;;11.20;1.00;;;;;;5032469;28;20029;-58
2023/01/05 01:19:04;;;;;;;75.35;42.17;;;11.10;1.00;;;;;;5032127;28;20379;-57
2023/01/05 01:21:30;;;;;;;74.90;41.97;;;11.10;1.00;;;;;;5032163;28;20092;-58
2023/01/05 01:23:56;;;;;;;75.55;43.03;;;11.00;1.00;;;;;;5030730;28;20120;-57
2023/01/05 01:26:21;;;;;;;73.38;41.75;;;11.20;1.00;;;;;;5032092;28;20029;-58
2023/01/05 01:28:47;;;;;;;97.05;46.45;;;11.40;1.00;;;;;;5032314;28;20056;-58
2023/01/05 01:31:14;;;;;;;76.80;43.17;;;11.30;1.00;;;;;;5027554;28;20095;-59
2023/01/05 01:33:48;;;;;;;72.70;41.88;;;11.40;1.00;;;;;;5030680;28;20022;-58
2023/01/05 01:36:14;;;;;;;;;;;11.30;1.00;;;;;;5032776;28;20028;-58
2023/01/05 01:38:40;;;;;;;82.57;44.83;;;11.10;1.00;;;;;;5031986;28;19905;-59
2023/01/05 01:41:05;;;;;;;78.70;45.05;;;11.20;1.00;;;;;;5030580;28;20487;-58
2023/01/05 01:43:48;;;;;;;89.85;46.53;;;11.40;1.00;;;;;;5027902;28;20087;-58
2023/01/05 02:00:05;;;;;;;64.10;40.35;;;11.20;1.00;;;;;;4996275;28;20100;-58
2023/01/05 02:02:31;;;;;;;64.88;38.25;;;11.20;1.00;;;;;;5000158;28;20136;-57
2023/01/05 02:05:01;;;;;;;63.00;39.60;;;11.10;1.00;;;;;;5011867;28;20482;-58
2023/01/05 02:07:32;;;;;;;61.63;37.85;;;11.20;1.00;;;;;;4998385;28;20042;-57
2023/01/05 02:09:58;;;;;;;69.88;41.08;;;11.20;1.00;;;;;;5011960;28;20032;-57
2023/01/05 02:13:00;;;;;;;60.30;38.58;;;11.20;1.00;;;;;;5010568;28;20164;-59
2023/01/05 02:15:48;;;;;;;56.28;36.53;;;11.20;1.00;;;;;;5010967;28;20014;-59
2023/01/05 02:18:47;;;;;;;59.22;36.30;;;11.00;1.00;;;;;;5016205;28;20068;-59
2023/01/05 02:21:29;;;;;;;51.63;36.00;;;11.10;1.00;;;;;;5011350;28;20022;-59
2023/01/05 02:24:12;;;;;;;53.42;35.53;;;11.00;1.00;;;;;;5015879;28;20116;-59
2023/01/05 02:27:19;;;;;;;47.55;33.22;;;10.90;1.00;;;;;;5015451;28;20034;-58
2023/01/05 02:30:04;;;;;;;46.95;33.10;;;11.00;1.00;;;;;;5012559;28;20041;-60
2023/01/05 02:32:38;;;;;;;48.50;32.97;;;11.00;1.00;;;;;;5010907;28;20541;-59
2023/01/05 02:35:38;;;;;;;47.03;30.75;;;10.90;1.00;;;;;;5015765;28;20125;-58
2023/01/05 02:38:20;;;;;;;45.63;32.00;;;10.80;1.00;;;;;;5002316;28;20534;-60
2023/01/05 02:40:50;;;;;;;43.47;31.20;;;10.80;1.00;;;;;;5006820;28;20559;-59
2023/01/05 02:43:20;;;;;;;42.58;31.27;;;11.00;1.00;;;;;;5014618;28;20041;-59
2023/01/05 02:45:48;;;;;;;42.55;30.17;;;11.00;1.00;;;;;;5012408;28;20179;-60
2023/01/05 02:48:14;;;;;;;41.67;31.05;;;11.10;1.00;;;;;;5013540;28;20018;-58
2023/01/05 02:51:04;;;;;;;38.72;28.70;;;11.00;1.00;;;;;;5012984;28;20025;-60
2023/01/05 02:53:38;;;;;;;43.30;29.50;;;11.00;1.00;;;;;;5015339;28;20026;-59
2023/01/05 02:56:20;;;;;;;41.67;30.58;;;11.00;1.00;;;;;;5008911;28;20025;-59
2023/01/05 02:59:01;;;;;;;40.38;29.10;;;11.00;1.00;;;;;;5025036;28;20056;-59
2023/01/05 03:01:39;;;;;;;40.22;29.77;;;10.80;1.00;;;;;;5021820;28;20025;-60
2023/01/05 03:04:12;;;;;;;38.05;28.20;;;10.90;1.00;;;;;;5035153;28;20044;-59
2023/01/05 03:06:46;;;;;;;38.22;28.35;;;10.90;1.00;;;;;;5034783;28;20387;-58
2023/01/05 03:09:18;;;;;;;34.88;25.85;;;10.90;1.00;;;;;;5034949;28;20022;-58
2023/01/05 03:14:50;;;;;;;33.90;26.20;;;10.90;1.00;;;;;;5034531;28;20040;-60
2023/01/05 03:17:24;;;;;;;32.88;25.13;;;10.90;1.00;;;;;;5033883;28;20026;-59
2023/01/05 03:19:51;;;;;;;33.50;25.95;;;10.90;1.00;;;;;;5033074;28;20026;-58
2023/01/05 03:37:07;;;;;;;29.23;22.83;;;10.90;1.00;;;;;;5034100;28;20134;-59
2023/01/05 03:39:36;;;;;;;28.88;22.58;;;10.90;1.00;;;;;;5034297;28;20098;-60
2023/01/05 03:42:07;;;;;;;26.60;21.70;;;10.90;1.00;;;;;;5033987;28;20041;-60
2023/01/05 03:44:42;;;;;;;31.10;21.80;;;10.90;1.00;;;;;;5036479;28;20109;-59
2023/01/05 03:47:08;;;;;;;23.13;20.63;;;10.90;1.00;;;;;;5035742;28;20398;-58
2023/01/05 03:49:35;;;;;;;24.67;20.83;;;10.90;1.00;;;;;;5033260;28;20026;-59
2023/01/05 03:52:01;;;;;;;24.15;20.98;;;10.90;1.00;;;;;;5033891;28;20029;-59
2023/01/05 03:54:27;;;;;;;23.42;20.33;;;10.90;1.00;;;;;;5032556;28;20523;-58
2023/01/05 03:56:52;;;;;;;26.80;20.13;;;11.00;1.00;;;;;;5034099;28;20071;-58
2023/01/05 03:59:18;;;;;;;23.13;20.08;;;10.90;1.00;;;;;;5030023;28;20042;-60
2023/01/05 04:01:44;;;;;;;22.63;19.83;;;10.90;1.00;;;;;;5038380;28;20431;-60
2023/01/05 04:04:09;;;;;;;24.77;19.20;;;10.80;1.00;;;;;;5043041;28;20045;-55
2023/01/05 04:06:35;;;;;;;20.73;18.50;;;10.90;1.00;;;;;;5032001;28;20049;-59
2023/01/05 04:09:00;;;;;;;20.25;17.45;;;10.90;1.00;;;;;;5033883;28;20028;-59
2023/01/05 04:11:26;;;;;;;23.38;19.00;;;10.90;1.00;;;;;;5033587;28;20041;-59
2023/01/05 04:13:52;;;;;;;21.33;17.10;;;11.00;1.00;;;;;;5033719;28;20486;-59
2023/01/05 04:16:18;;;;;;;20.15;17.83;;;10.80;1.00;;;;;;5030539;28;20506;-60
2023/01/05 04:18:44;;;;;;;19.98;17.58;;;10.80;1.00;;;;;;5033689;28;20496;-58
2023/01/05 04:21:10;;;;;;;23.15;18.60;;;10.90;1.00;;;;;;5022411;28;20033;-58
2023/01/05 04:23:35;;;;;;;20.55;18.30;;;10.70;1.00;;;;;;5030252;28;20030;-59
2023/01/05 04:26:02;;;;;;;21.98;19.50;;;10.70;1.00;;;;;;5033009;28;20036;-59
2023/01/05 04:28:27;;;;;;;22.23;19.83;;;10.80;1.00;;;;;;5033355;28;20029;-58
2023/01/05 04:30:54;;;;;;;22.52;19.27;;;10.80;1.00;;;;;;5028568;28;20029;-60
2023/01/05 04:33:20;;;;;;;22.85;20.33;;;10.80;1.00;;;;;;5033186;28;20486;-60
2023/01/05 04:35:46;;;;;;;22.48;20.05;;;10.80;1.00;;;;;;5035820;28;20028;-59
2023/01/05 04:38:12;;;;;;;24.30;20.10;;;10.80;1.00;;;;;;5042968;28;20036;-60
2023/01/05 04:40:38;;;;;;;23.52;20.05;;;10.80;1.00;;;;;;5030061;28;20061;-60
2023/01/05 04:43:04;;;;;;;23.67;19.58;;;10.80;1.00;;;;;;5033137;28;20076;-59
2023/01/05 04:45:30;;;;;;;24.40;21.75;;;10.70;1.00;;;;;;5028034;28;20025;-60
2023/01/05 04:47:55;;;;;;;25.42;20.52;;;10.80;1.00;;;;;;5032994;28;20017;-59
2023/01/05 04:50:21;;;;;;;28.00;21.70;;;10.90;1.00;;;;;;5029259;28;20485;-59
2023/01/05 04:52:47;;;;;;;23.20;20.70;;;10.70;1.00;;;;;;5029439;28;20032;-59
2023/01/05 04:55:12;;;;;;;24.23;21.08;;;10.70;1.00;;;;;;5031381;28;20059;-59
2023/01/05 04:57:38;;;;;;;24.60;20.98;;;10.70;1.00;;;;;;5028473;28;20038;-59
2023/01/05 05:00:04;;;;;;;25.70;21.05;;;10.70;1.00;;;;;;5032710;28;20057;-59
2023/01/05 05:02:30;;;;;;;23.52;20.73;;;10.50;1.00;;;;;;5028958;28;20033;-58
2023/01/05 05:04:56;;;;;;;24.02;20.98;;;10.60;1.00;;;;;;5032433;28;20036;-57
2023/01/05 05:07:22;;;;;;;23.85;19.85;;;10.60;1.00;;;;;;5026742;28;20041;-60
2023/01/05 05:09:48;;;;;;;22.35;19.80;;;10.50;1.00;;;;;;5030903;28;20096;-59
2023/01/05 05:12:14;;;;;;;23.60;19.73;;;10.50;1.00;;;;;;5022855;28;20021;-59
2023/01/05 05:14:39;;;;;;;23.95;21.15;;;10.60;1.00;;;;;;5030810;28;20021;-59
2023/01/05 05:17:05;;;;;;;25.48;21.05;;;10.50;1.00;;;;;;5020801;28;20078;-57
2023/01/05 05:19:32;;;;;;;25.30;20.70;;;10.50;1.00;;;;;;5032267;28;20116;-59
2023/01/05 05:21:58;;;;;;;27.77;21.00;;;10.50;1.00;;;;;;5032238;28;20022;-58
2023/01/05 05:24:23;;;;;;;24.33;18.88;;;10.30;1.00;;;;;;5032271;28;20025;-59
2023/01/05 05:26:49;;;;;;;23.70;21.20;;;10.00;1.00;;;;;;5031102;28;20045;-58
2023/01/05 05:29:14;;;;;;;22.73;20.00;;;10.00;1.00;;;;;;5032329;28;20025;-59
2023/01/05 05:31:40;;;;;;;20.20;17.67;;;10.10;1.00;;;;;;5022065;28;20029;-59
2023/01/05 05:34:06;;;;;;;23.63;19.65;;;10.10;1.00;;;;;;5024017;28;20379;-58
2023/01/05 05:36:32;;;;;;;19.88;17.27;;;10.10;1.00;;;;;;5036626;28;20033;-57
2023/01/05 05:38:57;;;;;;;21.70;17.45;;;10.20;1.00;;;;;;5034300;28;20064;-57
2023/01/05 05:41:24;;;;;;;21.38;17.40;;;10.30;1.00;;;;;;5032215;28;20155;-59
2023/01/05 05:43:50;;;;;;;20.38;18.20;;;10.30;1.00;;;;;;5027191;28;20510;-58
2023/01/05 05:46:15;;;;;;;22.13;16.83;;;10.10;1.00;;;;;;5032056;28;20029;-57
2023/01/05 05:48:41;;;;;;;19.80;16.70;;;10.00;1.00;;;;;;5031959;28;20028;-57
2023/01/05 05:51:06;;;;;;;17.85;15.50;;;9.90;1.00;;;;;;5031876;28;20116;-58
2023/01/05 05:53:35;;;;;;;20.52;16.98;;;9.80;1.00;;;;;;5030683;28;20455;-58
2023/01/05 05:56:00;;;;;;;20.77;17.42;;;9.90;1.00;;;;;;5024301;28;20038;-59
2023/01/05 05:58:26;;;;;;;19.08;16.98;;;9.80;1.00;;;;;;5021317;28;20058;-60
2023/01/05 06:00:57;;;;;;;20.27;18.10;;;9.80;1.00;;;;;;5031782;28;20544;-57
2023/01/05 06:03:22;;;;;;;18.58;16.58;;;9.90;1.00;;;;;;5020401;28;20021;-56
2023/01/05 06:05:48;;;;;;;19.13;16.13;;;9.90;1.00;;;;;;5030410;28;20060;-57
2023/01/05 06:08:14;;;;;;;18.10;16.10;;;10.00;1.00;;;;;;5031579;28;20358;-59
2023/01/05 06:10:39;;;;;;;20.52;16.33;;;9.70;1.00;;;;;;5031157;28;20026;-59
2023/01/05 06:13:05;;;;;;;19.02;16.98;;;9.80;1.00;;;;;;5023689;28;20025;-59
2023/01/05 06:15:31;;;;;;;19.55;17.00;;;9.60;1.00;;;;;;5030248;28;20022;-58
2023/01/05 06:17:57;;;;;;;21.17;16.00;;;9.70;1.00;;;;;;5031503;28;20446;-55
2023/01/05 06:20:22;;;;;;;18.70;15.27;;;9.70;1.00;;;;;;5031471;28;20021;-58
2023/01/05 06:22:48;;;;;;;18.20;16.13;;;9.70;1.00;;;;;;5029424;28;20383;-58
2023/01/05 06:25:14;;;;;;;17.00;14.93;;;9.50;1.00;;;;;;5029137;28;20096;-58
2023/01/05 06:27:40;;;;;;;17.50;15.60;;;9.70;1.00;;;;;;5021545;28;20099;-59
2023/01/05 06:30:06;;;;;;;19.73;16.55;;;9.80;1.00;;;;;;5031727;28;20034;-59
2023/01/05 06:32:32;;;;;;;17.85;15.18;;;9.60;1.00;;;;;;5020539;28;20026;-58
2023/01/05 06:34:57;;;;;;;24.65;17.13;;;9.50;1.00;;;;;;5031645;28;20116;-58
2023/01/05 06:37:23;;;;;;;19.50;15.68;;;9.70;1.00;;;;;;5044272;28;20339;-58
2023/01/05 06:39:49;;;;;;;18.17;15.55;;;9.60;1.00;;;;;;5030365;28;20021;-58
2023/01/05 06:42:14;;;;;;;18.58;15.57;;;9.70;1.00;;;;;;5031360;28;20061;-58
2023/01/05 06:44:41;;;;;;;19.42;14.82;;;9.60;1.00;;;;;;5019757;28;20033;-57
2023/01/05 06:47:07;;;;;;;19.02;14.90;;;9.70;1.00;;;;;;5031284;28;20041;-59
2023/01/05 06:49:32;;;;;;;19.33;15.38;;;9.80;1.00;;;;;;5017516;28;20052;-59
2023/01/05 06:51:58;;;;;;;17.58;15.15;;;9.80;1.00;;;;;;5031557;28;20049;-59
2023/01/05 06:54:24;;;;;;;17.23;15.38;;;9.70;1.00;;;;;;5017489;28;20030;-58
2023/01/05 06:56:49;;;;;;;18.25;15.02;;;9.80;1.00;;;;;;5028075;28;20030;-59
2023/01/05 06:59:15;;;;;;;17.40;14.82;;;9.60;1.00;;;;;;5031134;28;20049;-59
2023/01/05 07:01:40;;;;;;;17.05;14.52;;;9.70;1.00;;;;;;5027337;28;20497;-59
2023/01/05 07:10:50;;;;;;;19.25;16.25;;;9.70;1.00;;;;;;5025183;28;20041;-59
2023/01/05 07:13:16;;;;;;;19.60;16.27;;;9.70;1.00;;;;;;5034693;28;20034;-59
2023/01/05 07:15:41;;;;;;;17.48;15.68;;;9.70;1.00;;;;;;5032961;28;20406;-58
2023/01/05 07:18:07;;;;;;;24.10;17.15;;;9.60;1.00;;;;;;5033114;28;20029;-57
2023/01/05 07:20:33;;;;;;;18.05;15.10;;;9.80;1.00;;;;;;5033389;28;20033;-59
2023/01/05 07:22:58;;;;;;;15.65;13.55;;;9.80;1.00;;;;;;5033594;28;20033;-60
2023/01/05 07:25:30;;;;;;;20.90;15.25;;;9.90;1.00;;;;;;5032308;28;20116;-59
2023/01/05 07:27:56;;;;;;;16.80;14.95;;;9.90;1.00;;;;;;5033126;28;20116;-59
2023/01/05 07:30:21;;;;;;;18.38;15.18;;;9.90;1.00;;;;;;5033811;28;20104;-59
2023/01/05 07:32:47;;;;;;;17.75;15.27;;;9.90;1.00;;;;;;5024475;28;20097;-59
2023/01/05 07:35:28;;;;;;;18.50;14.55;;;9.90;1.00;;;;;;5033982;28;20049;-59
2023/01/05 07:37:57;;;;;;;17.23;14.20;;;10.00;1.00;;;;;;5024247;28;20423;-60
2023/01/05 07:40:23;;;;;;;17.27;14.73;;;10.00;1.00;;;;;;5032161;28;20025;-59
2023/01/05 07:42:52;;;;;;;18.90;15.82;;;9.90;1.00;;;;;;5034255;28;20097;-59
2023/01/05 07:45:18;;;;;;;18.02;14.52;;;9.90;1.00;;;;;;5032664;28;20030;-58
2023/01/05 07:47:44;;;;;;;16.52;14.63;;;9.90;1.00;;;;;;5034029;28;20186;-60
2023/01/05 07:50:10;;;;;;;19.35;15.48;;;10.00;1.00;;;;;;5025973;28;20537;-59
2023/01/05 07:52:35;;;;;;;19.65;15.70;;;10.00;1.00;;;;;;5048069;28;20022;-57
2023/01/05 07:55:01;;;;;;;16.60;14.52;;;10.00;1.00;;;;;;5033819;28;20029;-60
2023/01/05 07:57:26;;;;;;;18.58;13.90;;;10.10;1.00;;;;;;5022198;28;20041;-60
2023/01/05 07:59:52;;;;;;;18.95;15.15;;;10.10;1.00;;;;;;5033698;28;20037;-59
2023/01/05 08:02:18;;;;;;;15.50;13.35;;;10.10;1.00;;;;;;5032202;28;20037;-59
2023/01/05 08:04:44;;;;;;;18.10;14.63;;;10.10;1.00;;;;;;5033947;28;20091;-59
2023/01/05 08:07:10;;;;;;;17.25;14.07;;;10.20;1.00;;;;;;5031851;28;20033;-58
2023/01/05 08:12:21;;;;;;;;;;;10.10;1.00;;;;;;5034421;28;20036;-59
2023/01/05 08:14:46;;;;;;;18.20;14.88;;;10.10;1.00;;;;;;5030422;28;20310;-59
2023/01/05 08:17:12;;;;;;;19.75;14.38;;;10.20;1.00;;;;;;5024762;28;20081;-60
2023/01/05 08:19:37;;;;;;;17.70;14.52;;;10.20;1.00;;;;;;5033635;28;20037;-60
2023/01/05 08:22:03;;;;;;;19.23;14.50;;;10.20;1.00;;;;;;5031649;28;20022;-60
2023/01/05 08:24:29;;;;;;;19.17;14.50;;;10.30;1.00;;;;;;5033479;28;20422;-60
2023/01/05 08:26:55;;;;;;;19.30;13.88;;;10.20;1.00;;;;;;5029506;28;20063;-60
2023/01/05 08:29:20;;;;;;;18.05;14.02;;;10.20;1.00;;;;;;5033760;28;20044;-60
2023/01/05 08:31:46;;;;;;;15.90;13.38;;;10.30;1.00;;;;;;5025315;28;20506;-58
2023/01/05 08:34:12;;;;;;;17.00;13.63;;;10.20;1.00;;;;;;5033677;28;20056;-59
2023/01/05 08:36:38;;;;;;;16.52;13.38;;;10.10;1.00;;;;;;5031745;28;20120;-60
2023/01/05 08:39:05;;;;;;;16.70;12.88;;;10.20;1.00;;;;;;5033195;28;20029;-61
2023/01/05 08:41:34;;;;;;;17.70;14.68;;;10.30;1.00;;;;;;5029392;28;20056;-59
2023/01/05 08:44:02;;;;;;;14.35;12.70;;;10.30;1.00;;;;;;5033190;28;20040;-60
2023/01/05 08:46:31;;;;;;;16.58;12.65;;;10.30;1.00;;;;;;5030173;28;20047;-60
2023/01/05 08:48:59;;;;;;;16.10;13.38;;;10.40;1.00;;;;;;5033129;28;20104;-61
2023/01/05 08:51:25;;;;;;;15.98;13.45;;;10.50;1.00;;;;;;5031419;28;20096;-61
2023/01/05 08:53:51;;;;;;;14.52;11.85;;;10.40;1.00;;;;;;5032998;28;20029;-61
2023/01/05 08:56:17;;;;;;;14.70;12.55;;;10.30;1.00;;;;;;5030219;28;20037;-60
2023/01/05 08:59:05;;;;;;;14.70;11.88;;;10.40;1.00;;;;;;5032830;28;20041;-59
2023/01/05 09:01:31;;;;;;;15.60;12.98;;;10.40;1.00;;;;;;5023712;28;20033;-60
2023/01/05 09:03:57;;;;;;;17.73;13.10;;;10.40;1.00;;;;;;5032886;28;20028;-58
2023/01/05 09:06:23;;;;;;;18.80;12.93;;;10.60;1.00;;;;;;5032354;28;20506;-59
2023/01/05 09:08:49;;;;;;;15.30;12.65;;;10.60;1.00;;;;;;5032729;28;20025;-49
2023/01/05 09:11:20;;;;;;;19.73;13.15;;;10.60;1.00;;;;;;5032480;28;20032;-50
2023/01/05 09:13:48;;;;;;;17.88;14.82;;;10.60;1.00;;;;;;5032630;28;20025;-52
2023/01/05 09:16:17;;;;;;;18.55;14.27;;;10.50;1.00;;;;;;5032384;28;20100;-49
2023/01/05 09:18:43;;;;;;;19.58;14.73;;;10.50;1.00;;;;;;5029559;28;20391;-47
2023/01/05 09:21:09;;;;;;;18.45;14.18;;;10.50;1.00;;;;;;5032420;28;20049;-54
2023/01/05 09:23:36;;;;;;;14.90;12.90;;;10.60;1.00;;;;;;5031710;28;20103;-54
2023/01/05 09:26:09;;;;;;;15.00;12.93;;;10.50;1.00;;;;;;5015904;28;20145;-55
2023/01/05 09:28:36;;;;;;;17.73;14.05;;;10.60;1.00;;;;;;5031929;28;20435;-56
2023/01/05 09:31:10;;;;;;;17.58;13.77;;;10.70;1.00;;;;;;5027451;28;20033;-53
2023/01/05 09:33:36;;;;;;;18.63;14.52;;;10.70;1.00;;;;;;5029428;28;20032;-55
2023/01/05 09:36:02;;;;;;;16.38;13.73;;;10.70;1.00;;;;;;5032232;28;20029;-55
2023/01/05 09:38:28;;;;;;;17.77;14.48;;;10.70;1.00;;;;;;5030555;28;20059;-54
2023/01/05 09:40:59;;;;;;;18.48;14.07;;;10.80;1.00;;;;;;5032022;28;20017;-52
2023/01/05 09:43:30;;;;;;;18.02;14.00;;;10.70;1.00;;;;;;5031685;28;20364;-54
2023/01/05 09:45:57;;;;;;;16.55;13.57;;;10.70;1.00;;;;;;5031864;28;20364;-52
2023/01/05 09:48:24;;;;;;;18.25;13.38;;;10.70;1.00;;;;;;5013270;28;20026;-54
2023/01/05 09:50:51;;;;;;;15.95;13.20;;;10.80;1.00;;;;;;5031042;28;20039;-60
2023/01/05 09:53:27;;;;;;;18.02;12.02;;;10.90;1.00;;;;;;5031741;28;20040;-60
2023/01/05 09:55:53;;;;;;;18.13;12.93;;;10.80;1.00;;;;;;5027552;28;20194;-54
2023/01/05 09:58:24;;;;;;;19.65;13.15;;;10.80;1.00;;;;;;5031814;28;20085;-51
2023/01/05 10:01:17;;;;;;;18.13;13.77;;;10.80;1.00;;;;;;5028733;28;20029;-52
2023/01/05 10:03:55;;;;;;;20.98;14.70;;;10.80;1.00;;;;;;5026080;28;20040;-50
2023/01/05 10:06:24;;;;;;;14.75;13.10;;;10.80;1.00;;;;;;5029154;28;20053;-52
2023/01/05 10:08:50;;;;;;;16.52;13.02;;;10.80;1.00;;;;;;5030307;28;20432;-50
2023/01/05 10:14:40;;;;;;;15.60;13.77;;;10.80;1.00;;;;;;5031818;28;20056;-55
2023/01/05 10:17:18;;;;;;;19.20;14.88;;;10.80;1.00;;;;;;5029461;28;20032;-52
2023/01/05 10:19:44;;;;;;;17.77;14.52;;;10.90;1.00;;;;;;5027248;28;20030;-54
2023/01/05 10:22:34;;;;;;;19.67;14.85;;;11.00;1.00;;;;;;5031241;28;20052;-51
2023/01/05 10:25:19;;;;;;;16.38;13.80;;;11.00;1.00;;;;;;5017616;28;20022;-53
2023/01/05 10:28:06;;;;;;;17.52;13.35;;;11.10;1.00;;;;;;5023056;28;20529;-60
2023/01/05 10:30:58;;;;;;;17.95;15.02;;;11.10;1.00;;;;;;5012458;28;20171;-61
2023/01/05 10:33:34;;;;;;;19.17;13.30;;;11.10;1.00;;;;;;5019949;28;20112;-61
2023/01/05 10:36:18;;;;;;;16.40;13.20;;;11.20;1.00;;;;;;5031463;28;20108;-57
2023/01/05 10:38:53;;;;;;;17.45;13.75;;;11.20;1.00;;;;;;5035322;28;20486;-59
2023/01/05 10:41:43;;;;;;;16.63;14.52;;;11.20;1.00;;;;;;5035180;28;20108;-61
2023/01/05 10:44:42;;;;;;;18.77;14.60;;;11.30;1.00;;;;;;5031937;28;20033;-58
2023/01/05 10:47:09;;;;;;;16.02;13.88;;;11.40;1.00;;;;;;5029564;28;20528;-63
2023/01/05 10:49:37;;;;;;;17.65;14.57;;;11.30;1.00;;;;;;5033639;28;20059;-58
2023/01/05 10:52:02;;;;;;;18.02;14.65;;;11.30;1.00;;;;;;5026269;28;20434;-60
2023/01/05 10:54:38;;;;;;;17.88;14.65;;;11.50;1.00;;;;;;5033624;28;20120;-60
2023/01/05 10:57:32;;;;;;;21.23;16.35;;;11.50;1.00;;;;;;5021179;28;20416;-61
2023/01/05 11:00:06;;;;;;;19.98;15.23;;;11.50;1.00;;;;;;5033067;28;20048;-63
2023/01/05 11:02:35;;;;;;;22.67;17.23;;;11.50;1.00;;;;;;5035158;28;20030;-61
2023/01/05 11:05:17;;;;;;;20.30;16.08;;;11.60;1.00;;;;;;5021311;28;20495;-61
2023/01/05 11:07:55;;;;;;;23.15;18.55;;;11.60;1.00;;;;;;5034817;28;20044;-60
2023/01/05 11:10:26;;;;;;;23.55;18.27;;;11.60;1.00;;;;;;5034452;28;20029;-60
2023/01/05 11:13:39;;;;;;;25.80;17.35;;;11.60;1.00;;;;;;5030522;28;20033;-58
2023/01/05 11:16:16;;;;;;;21.77;16.52;;;11.80;1.00;;;;;;5026900;28;20038;-59
2023/01/05 11:18:58;;;;;;;21.85;16.75;;;12.00;1.00;;;;;;5031171;28;20029;-60
2023/01/05 11:21:43;;;;;;;22.50;18.40;;;12.10;1.00;;;;;;5034863;28;20018;-59
2023/01/05 11:24:24;;;;;;;25.27;18.53;;;12.10;1.00;;;;;;5027553;28;20052;-64
2023/01/05 11:27:32;;;;;;;21.30;16.65;;;12.20;1.00;;;;;;5033627;28;20059;-60
2023/01/05 11:30:24;;;;;;;24.58;17.30;;;12.10;1.00;;;;;;5013017;28;20025;-59
2023/01/05 11:32:50;;;;;;;20.08;16.30;;;12.00;1.00;;;;;;5033232;28;20041;-58
2023/01/05 11:35:24;;;;;;;22.17;15.70;;;12.00;1.00;;;;;;5034036;28;20100;-59
2023/01/05 11:37:49;;;;;;;20.45;15.60;;;11.90;1.00;;;;;;5032996;28;20436;-54
2023/01/05 11:40:46;;;;;;;21.85;15.70;;;12.00;1.00;;;;;;5023618;28;20037;-57
2023/01/05 11:43:11;;;;;;;19.58;15.05;;;12.00;1.00;;;;;;5034227;28;20033;-57
2023/01/05 11:45:45;;;;;;;19.48;15.93;;;12.00;1.00;;;;;;5031972;28;20100;-56
2023/01/05 11:48:18;;;;;;;21.13;16.92;;;12.10;1.00;;;;;;5032502;28;20022;-54
2023/01/05 11:50:48;;;;;;;18.60;15.27;;;12.00;1.00;;;;;;5034673;28;20390;-59
2023/01/05 11:53:31;;;;;;;18.92;15.40;;;12.00;1.00;;;;;;5038824;28;20091;-60
2023/01/05 11:56:01;;;;;;;22.02;16.20;;;12.00;1.00;;;;;;5034051;28;20179;-61
2023/01/05 11:58:40;;;;;;;19.73;15.85;;;12.00;1.00;;;;;;5037967;28;20064;-56
2023/01/05 12:01:26;;;;;;;18.52;15.35;;;12.10;1.00;;;;;;5033743;28;20502;-59
2023/01/05 12:04:09;;;;;;;22.00;15.65;;;12.10;1.00;;;;;;5020576;28;20022;-60
2023/01/05 12:06:46;;;;;;;17.35;15.10;;;12.20;1.00;;;;;;5034188;28;20064;-59
2023/01/05 12:09:34;;;;;;;20.80;14.88;;;12.20;1.00;;;;;;5043358;28;20032;-60
2023/01/05 12:12:06;;;;;;;17.48;14.00;;;12.30;1.00;;;;;;5029487;28;20079;-56
2023/01/05 12:14:59;;;;;;;18.05;13.30;;;12.20;1.00;;;;;;5028651;28;20495;-56
2023/01/05 12:17:35;;;;;;;18.67;12.98;;;12.30;1.00;;;;;;5031650;28;20348;-63
2023/01/05 12:20:22;;;;;;;16.10;12.88;;;12.30;1.00;;;;;;5033731;28;20100;-60
2023/01/05 12:22:57;;;;;;;14.98;13.35;;;12.40;1.00;;;;;;5021128;28;20025;-56
2023/01/05 12:25:41;;;;;;;17.70;13.88;;;12.50;1.00;;;;;;5032996;28;20099;-54
2023/01/05 12:28:27;;;;;;;17.17;13.38;;;12.50;1.00;;;;;;5033341;28;20033;-55
2023/01/05 12:31:29;;;;;;;18.67;14.55;;;12.40;1.00;;;;;;5027645;28;20033;-57
2023/01/05 12:34:13;;;;;;;16.83;13.10;;;12.50;1.00;;;;;;5029405;28;20385;-56
2023/01/05 12:36:43;;;;;;;16.30;12.60;;;12.50;1.00;;;;;;5031785;28;20022;-56
2023/01/05 12:39:37;;;;;;;15.85;13.88;;;12.60;1.00;;;;;;5030508;28;20026;-55
2023/01/05 12:42:06;;;;;;;18.00;13.27;;;12.60;1.00;;;;;;5032594;28;20068;-55
2023/01/05 12:44:41;;;;;;;17.55;13.98;;;12.70;1.00;;;;;;5031626;28;20043;-52
2023/01/05 12:47:35;;;;;;;17.08;13.38;;;12.70;1.00;;;;;;5032878;28;20200;-60
2023/01/05 12:50:32;;;;;;;17.88;14.60;;;12.90;1.00;;;;;;5024631;28;20022;-58
2023/01/05 12:53:16;;;;;;;18.00;14.57;;;12.90;1.00;;;;;;5029615;28;20033;-58
2023/01/05 12:55:47;;;;;;;21.20;15.50;;;12.90;1.00;;;;;;5023932;28;20029;-59
2023/01/05 12:58:33;;;;;;;18.65;14.95;;;12.90;1.00;;;;;;5036477;28;20402;-59
2023/01/05 13:01:00;;;;;;;18.35;15.27;;;12.90;1.00;;;;;;5025127;28;20033;-57
2023/01/05 13:03:36;;;;;;;18.02;14.02;;;12.90;1.00;;;;;;5031744;28;20537;-56
2023/01/05 13:06:08;;;;;;;19.05;13.93;;;12.90;1.00;;;;;;5032431;28;20036;-57
2023/01/05 13:08:53;;;;;;;20.45;15.52;;;12.90;1.00;;;;;;5032530;28;20021;-58
2023/01/05 13:11:30;;;;;;;16.33;13.73;;;12.90;1.00;;;;;;5021977;28;20116;-59
2023/01/05 13:13:59;;;;;;;16.05;13.30;;;13.00;1.00;;;;;;5022970;28;20391;-58
2023/01/05 13:16:36;;;;;;;15.98;13.32;;;13.00;1.00;;;;;;5032297;28;20617;-59
2023/01/05 13:19:11;;;;;;;15.70;12.70;;;13.10;1.00;;;;;;5032321;28;20104;-59
2023/01/05 13:21:41;;;;;;;17.17;12.35;;;13.10;1.00;;;;;;5031061;28;20033;-59
2023/01/05 13:24:34;;;;;;;15.50;11.57;;;13.10;1.00;;;;;;5023500;28;20107;-59
2023/01/05 13:27:01;;;;;;;16.15;11.40;;;13.20;1.00;;;;;;5026833;28;20076;-59
2023/01/05 13:29:31;;;;;;;16.88;11.65;;;13.20;1.00;;;;;;5026547;28;20046;-58
2023/01/05 13:32:30;;;;;;;13.43;11.65;;;13.20;1.00;;;;;;5030798;28;20099;-58
2023/01/05 13:35:27;;;;;;;14.45;12.48;;;13.20;1.00;;;;;;5023700;28;20614;-58
2023/01/05 13:38:20;;;;;;;15.65;11.95;;;13.20;1.00;;;;;;5032147;28;20033;-59
2023/01/05 13:41:06;;;;;;;16.27;13.05;;;13.20;1.00;;;;;;5030693;28;20029;-58
2023/01/05 13:43:34;;;;;;;17.73;12.20;;;13.20;1.00;;;;;;5031804;28;20033;-65
2023/01/05 13:46:18;;;;;;;17.42;12.93;;;13.30;1.00;;;;;;5023760;28;20022;-63
2023/01/05 13:48:50;;;;;;;15.43;12.73;;;13.40;1.00;;;;;;5029000;28;20048;-65
2023/01/05 13:51:53;;;;;;;17.08;13.25;;;13.40;1.00;;;;;;5032344;28;20264;-61
2023/01/05 13:54:27;;;;;;;16.50;12.35;;;13.40;1.00;;;;;;5028646;28;20042;-62
2023/01/05 13:56:53;;;;;;;15.65;11.55;;;13.50;1.00;;;;;;5026014;28;20506;-62